Time;durP1;ratioP1;P1;durP2;ratioP2;P2;SDS_P1;SDS_P2;PMS_P1;PMS_P2;Temp;Humidity;BMP_temperature;BMP_pressure;BME280_temperature;BME280_humidity;BME280_pressure;Samples;Min_cycle;Max_cycle;Signal;HPM_P1;HPM_P2
2022/01/05 00:00:56;;;;;;;6.80;3.65;;;5.50;99.90;;;4.49;99.85;101023.03;4150647;28;20140;-66
2022/01/05 00:02:57;;;;;;;7.25;3.35;;;5.40;99.90;;;4.48;100.00;101023.97;4157577;28;20017;-66
2022/01/05 00:04:58;;;;;;;9.38;2.92;;;5.40;99.90;;;4.69;98.86;101021.63;4155604;28;20037;-66
2022/01/05 00:06:58;;;;;;;8.25;4.38;;;5.50;99.90;;;4.75;99.10;101021.97;4166553;28;20049;-66
2022/01/05 00:08:59;;;;;;;8.10;3.35;;;5.50;99.90;;;4.63;99.03;101006.38;4173788;28;20030;-66
2022/01/05 00:11:00;;;;;;;6.28;2.97;;;5.50;99.90;;;4.52;100.00;101021.97;4167123;28;20446;-66
2022/01/05 00:13:01;;;;;;;10.13;3.67;;;5.40;99.90;;;4.56;100.00;101023.44;4160387;28;20417;-66
2022/01/05 00:15:03;;;;;;;10.18;3.88;;;5.40;99.90;;;4.80;98.48;101029.50;4152409;28;20030;-66
2022/01/05 00:17:04;;;;;;;10.02;3.00;;;5.40;99.90;;;4.85;99.84;101037.84;4171721;28;20029;-66
2022/01/05 00:19:05;;;;;;;4.95;3.17;;;5.40;99.90;;;4.92;98.35;101031.22;4167092;28;20062;-66
2022/01/05 00:21:06;;;;;;;13.10;3.78;;;5.50;99.90;;;4.89;97.21;101034.91;4151197;28;20038;-66
2022/01/05 00:23:08;;;;;;;6.57;3.08;;;5.50;99.90;;;4.45;100.00;101026.81;4152055;28;20486;-66
2022/01/05 00:25:09;;;;;;;6.90;3.15;;;5.50;99.90;;;4.65;100.00;101036.69;4154555;28;20101;-66
2022/01/05 00:27:10;;;;;;;6.05;3.15;;;5.40;99.90;;;4.65;98.93;101031.47;4158366;28;20089;-66
2022/01/05 00:29:11;;;;;;;8.88;3.25;;;5.40;99.90;;;4.67;99.65;101033.94;4150539;28;20053;-66
2022/01/05 00:31:12;;;;;;;10.23;2.90;;;5.40;99.90;;;4.70;99.06;101025.88;4165377;28;20510;-66
2022/01/05 00:33:14;;;;;;;11.93;3.30;;;5.30;99.90;;;4.63;100.00;101028.09;4166879;28;20404;-66
2022/01/05 00:35:15;;;;;;;12.55;3.83;;;5.20;99.90;;;4.20;100.00;101026.91;4166937;28;20056;-66
2022/01/05 00:37:16;;;;;;;8.90;4.20;;;5.20;99.90;;;3.92;100.00;101025.38;4167067;28;20478;-66
2022/01/05 00:39:17;;;;;;;8.70;4.65;;;5.00;99.90;;;4.33;100.00;101025.09;4153924;28;20030;-66
2022/01/05 00:41:18;;;;;;;9.60;3.35;;;5.00;99.90;;;4.16;100.00;101026.28;4153542;28;20686;-66
2022/01/05 00:43:19;;;;;;;7.60;3.50;;;5.00;99.90;;;4.51;100.00;101020.34;4153631;28;20101;-66
2022/01/05 00:45:20;;;;;;;10.05;3.88;;;5.00;99.90;;;4.59;99.92;101020.59;4153546;28;20034;-66
2022/01/05 00:47:21;;;;;;;7.75;3.47;;;5.00;99.90;;;4.55;99.58;101032.22;4166718;28;20488;-66
2022/01/05 00:49:22;;;;;;;11.30;3.25;;;5.00;99.90;;;4.32;100.00;101026.88;4158457;28;20033;-66
2022/01/05 00:51:23;;;;;;;6.78;3.03;;;5.10;99.90;;;4.47;99.30;101032.78;4173398;28;20033;-66
2022/01/05 00:53:25;;;;;;;10.27;3.75;;;5.00;99.90;;;4.41;99.45;101028.84;4152196;28;20022;-66
2022/01/05 00:55:28;;;;;;;7.70;2.95;;;5.00;99.90;;;4.59;98.93;101036.28;4174966;28;20040;-66
2022/01/05 00:57:29;;;;;;;9.43;3.38;;;5.10;99.90;;;4.58;98.67;101035.44;4153333;28;20034;-66
2022/01/05 00:59:30;;;;;;;6.78;2.85;;;5.10;99.90;;;4.63;98.52;101037.75;4153318;28;20033;-66
2022/01/05 01:01:31;;;;;;;8.82;3.45;;;5.00;99.90;;;4.09;100.00;101035.47;4153346;28;20034;-66
2022/01/05 01:03:32;;;;;;;11.90;3.42;;;5.10;99.90;;;4.30;100.00;101030.53;4153388;28;20057;-66
2022/01/05 01:05:33;;;;;;;12.05;3.30;;;4.90;99.90;;;4.25;100.00;101032.63;4169054;28;20037;-67
2022/01/05 01:07:34;;;;;;;7.72;3.30;;;4.90;99.90;;;4.36;99.77;101035.34;4169207;28;20017;-66
2022/01/05 01:09:35;;;;;;;9.20;3.05;;;4.90;99.90;;;4.28;100.00;101029.78;4159200;28;20022;-66
2022/01/05 01:11:36;;;;;;;9.50;3.90;;;4.90;99.90;;;4.40;100.00;101027.16;4164383;28;20460;-67
2022/01/05 01:13:37;;;;;;;9.65;3.47;;;4.80;99.90;;;4.01;100.00;101036.94;4180171;28;20033;-66
2022/01/05 01:15:37;;;;;;;11.20;3.55;;;4.80;99.90;;;3.92;100.00;101044.50;4158862;28;20029;-67
2022/01/05 01:17:39;;;;;;;11.63;4.28;;;4.80;99.90;;;4.02;100.00;101036.03;4169291;28;20029;-66
2022/01/05 01:19:40;;;;;;;7.28;4.05;;;4.70;99.90;;;4.07;100.00;101029.53;4169534;28;20064;-67
2022/01/05 01:21:41;;;;;;;9.63;3.40;;;4.60;99.90;;;3.92;100.00;101025.38;4175206;28;20541;-66
2022/01/05 01:23:53;;;;;;;12.63;3.65;;;4.60;99.90;;;3.98;100.00;101027.56;4159187;28;20026;-66
2022/01/05 01:25:54;;;;;;;12.18;3.75;;;4.60;99.90;;;4.02;100.00;101022.97;4169215;28;20056;-66
2022/01/05 01:27:55;;;;;;;9.70;3.30;;;4.60;99.90;;;4.37;100.00;101026.53;4169268;28;20497;-66
2022/01/05 01:29:56;;;;;;;9.80;3.85;;;4.60;99.90;;;4.46;98.85;101024.09;4169531;28;20029;-66
2022/01/05 01:31:57;;;;;;;9.52;3.03;;;4.70;99.90;;;4.30;99.85;101025.31;4169249;28;20033;-66
2022/01/05 01:33:58;;;;;;;8.18;3.95;;;4.70;99.90;;;4.17;100.00;101019.28;4169217;28;20049;-66
2022/01/05 01:35:59;;;;;;;14.40;3.33;;;4.70;99.90;;;4.15;99.70;101032.44;4179839;28;20404;-66
2022/01/05 01:38:00;;;;;;;12.35;3.92;;;4.70;99.90;;;3.79;100.00;101029.81;4157331;28;20025;-66
2022/01/05 01:40:01;;;;;;;7.43;3.20;;;4.60;99.90;;;4.11;100.00;101035.38;4160243;28;20497;-66
2022/01/05 01:42:03;;;;;;;7.07;2.90;;;4.60;99.90;;;4.11;99.33;101035.38;4162454;28;20037;-66
2022/01/05 01:44:04;;;;;;;9.90;4.32;;;4.60;99.90;;;4.21;99.40;101045.06;4155668;28;20028;-66
2022/01/05 01:46:08;;;;;;;13.35;3.65;;;4.60;99.90;;;3.99;99.91;101047.50;4168896;28;20377;-66
2022/01/05 01:48:09;;;;;;;12.85;4.15;;;4.50;99.90;;;3.65;100.00;101045.53;4166251;28;20587;-67
2022/01/05 01:50:11;;;;;;;8.85;4.13;;;4.40;99.90;;;3.75;100.00;101054.41;4169025;28;20038;-67
2022/01/05 01:52:12;;;;;;;7.28;3.05;;;4.50;99.90;;;3.72;100.00;101058.09;4168395;28;20018;-67
2022/01/05 01:54:14;;;;;;;8.60;3.60;;;4.40;99.90;;;3.79;100.00;101051.47;4172322;28;20485;-66
2022/01/05 01:56:15;;;;;;;7.47;3.80;;;4.30;99.90;;;3.99;100.00;101047.50;4162639;28;20555;-66
2022/01/05 01:58:20;;;;;;;9.00;3.17;;;4.40;99.90;;;4.12;100.00;101061.38;4155026;28;20497;-66
2022/01/05 02:00:21;;;;;;;8.25;2.83;;;4.40;99.90;;;3.84;100.00;101064.22;4165410;28;20034;-66
2022/01/05 02:02:22;;;;;;;9.95;2.80;;;4.40;99.90;;;4.10;100.00;101059.81;4168717;28;20033;-66
2022/01/05 02:04:23;;;;;;;9.15;3.33;;;4.80;99.90;;;4.14;99.08;101067.34;4160229;28;20058;-66
2022/01/05 02:06:24;;;;;;;8.07;3.05;;;4.50;99.90;;;4.06;99.40;101068.81;4151778;28;20049;-66
2022/01/05 02:08:25;;;;;;;8.90;2.85;;;4.50;99.90;;;4.19;98.42;101062.63;4152301;28;20029;-66
2022/01/05 02:10:26;;;;;;;5.40;2.97;;;4.50;99.90;;;3.97;99.02;101064.22;4156290;28;20112;-66
2022/01/05 02:12:29;;;;;;;8.20;3.47;;;4.50;99.90;;;3.98;99.92;101076.31;4168592;28;20485;-66
2022/01/05 02:14:30;;;;;;;12.50;3.97;;;4.50;99.90;;;3.83;100.00;101068.59;4156655;28;20463;-66
2022/01/05 02:16:33;;;;;;;6.72;3.50;;;4.30;99.90;;;4.00;99.64;101072.69;4165904;28;20026;-66
2022/01/05 02:20:40;;;;;;;10.20;3.95;;;4.40;99.90;;;4.24;97.90;101085.81;4166917;28;20117;-66
2022/01/05 02:22:42;;;;;;;9.82;3.50;;;4.50;99.90;;;4.08;98.31;101080.81;4153839;28;20030;-66
2022/01/05 02:24:47;;;;;;;12.15;3.58;;;4.50;99.90;;;4.15;99.41;101086.44;4153968;28;20076;-67
2022/01/05 02:26:48;;;;;;;9.65;3.35;;;4.40;99.90;;;3.90;98.95;101082.91;4161394;28;20033;-66
2022/01/05 02:28:50;;;;;;;8.48;3.17;;;4.40;99.90;;;3.91;99.50;101092.41;4151954;28;20049;-66
2022/01/05 02:30:52;;;;;;;9.02;3.22;;;4.40;99.90;;;3.58;100.00;101089.50;4152071;28;20026;-66
2022/01/05 02:32:53;;;;;;;7.57;3.60;;;4.30;99.90;;;4.18;98.73;101094.06;4177074;28;20747;-66
2022/01/05 02:34:54;;;;;;;11.00;2.78;;;4.30;99.90;;;3.97;98.18;101090.31;4150680;28;20054;-66
2022/01/05 02:36:55;;;;;;;6.95;3.75;;;4.40;99.90;;;4.01;99.04;101092.59;4160673;28;20397;-66
2022/01/05 02:38:57;;;;;;;11.20;3.92;;;4.30;99.90;;;4.08;99.07;101099.09;4154381;28;20022;-66
2022/01/05 02:41:09;;;;;;;10.25;3.25;;;4.30;99.90;;;4.25;97.35;101103.97;4150566;28;20074;-66
2022/01/05 02:43:11;;;;;;;4.88;3.15;;;4.40;99.90;;;4.20;97.52;101097.41;4158339;28;20017;-66
2022/01/05 02:45:14;;;;;;;9.73;2.90;;;4.40;99.90;;;3.78;99.48;101091.59;4168242;28;20038;-66
2022/01/05 02:47:14;;;;;;;10.27;3.13;;;4.40;99.90;;;3.72;100.00;101085.94;4167780;28;20397;-66
2022/01/05 02:49:15;;;;;;;8.60;2.78;;;4.40;99.90;;;3.62;100.00;101095.31;4152442;28;20030;-66
2022/01/05 02:51:16;;;;;;;4.93;3.05;;;4.30;99.90;;;3.76;100.00;101098.66;4150142;28;20029;-66
2022/01/05 02:53:17;;;;;;;4.82;3.10;;;4.30;99.90;;;3.87;100.00;101101.41;4160100;28;20034;-66
2022/01/05 02:55:18;;;;;;;9.38;3.95;;;4.20;99.90;;;3.66;100.00;101102.00;4172203;28;20095;-66
2022/01/05 02:57:19;;;;;;;9.85;3.38;;;4.20;99.90;;;3.47;100.00;101114.59;4151118;28;20077;-66
2022/01/05 02:59:20;;;;;;;10.50;3.35;;;4.20;99.90;;;3.72;100.00;101102.44;4166471;28;20400;-66
2022/01/05 03:01:21;;;;;;;7.57;3.10;;;4.10;99.90;;;3.99;98.97;101107.53;4167442;28;20500;-66
2022/01/05 03:03:22;;;;;;;8.18;2.90;;;4.20;99.90;;;3.72;99.05;101112.03;4154836;28;20026;-66
2022/01/05 03:05:23;;;;;;;9.20;3.70;;;4.20;99.90;;;3.14;100.00;101123.69;4166327;28;20025;-66
2022/01/05 03:07:24;;;;;;;10.93;4.40;;;4.00;99.90;;;3.18;100.00;101121.72;4167180;28;20037;-66
2022/01/05 03:09:25;;;;;;;10.13;3.60;;;4.00;99.90;;;3.19;100.00;101128.63;4167725;28;20036;-66
2022/01/05 03:11:26;;;;;;;11.65;3.63;;;4.00;99.90;;;3.14;100.00;101134.09;4167713;28;20018;-66
2022/01/05 03:13:27;;;;;;;7.47;3.85;;;4.00;99.90;;;3.22;100.00;101133.63;4167539;28;20040;-66
2022/01/05 03:15:28;;;;;;;16.17;3.55;;;3.90;99.90;;;3.29;100.00;101140.94;4172816;28;20048;-66
2022/01/05 03:17:29;;;;;;;9.63;3.40;;;3.80;99.90;;;3.12;100.00;101137.75;4152227;28;20044;-66
2022/01/05 03:19:30;;;;;;;9.57;3.53;;;3.80;99.90;;;3.42;100.00;101145.34;4163221;28;20105;-66
2022/01/05 03:21:31;;;;;;;10.02;3.13;;;3.90;99.90;;;3.60;100.00;101141.53;4168952;28;20025;-66
2022/01/05 03:23:32;;;;;;;5.55;3.03;;;3.90;99.90;;;3.21;100.00;101156.25;4173498;28;20568;-66
2022/01/05 03:25:33;;;;;;;9.13;3.15;;;3.90;99.90;;;3.48;100.00;101160.59;4159757;28;20071;-66
2022/01/05 03:27:34;;;;;;;18.90;3.55;;;3.90;99.90;;;3.62;100.00;101155.31;4154265;28;20036;-66
2022/01/05 03:29:35;;;;;;;10.38;3.67;;;3.90;99.90;;;3.35;100.00;101150.97;4166192;28;20112;-66
2022/01/05 03:31:36;;;;;;;5.65;2.90;;;3.90;99.90;;;3.41;100.00;101148.88;4167531;28;20029;-66
2022/01/05 03:33:36;;;;;;;9.20;2.92;;;4.00;99.90;;;3.41;100.00;101154.94;4167466;28;20052;-66
2022/01/05 03:35:45;;;;;;;4.93;2.58;;;3.90;99.90;;;3.57;100.00;101150.41;4154222;28;20061;-66
2022/01/05 03:37:46;;;;;;;10.40;3.47;;;3.90;99.90;;;3.12;100.00;101148.19;4149376;28;20034;-66
2022/01/05 03:39:46;;;;;;;15.73;5.35;;;3.90;99.90;;;3.34;100.00;101148.47;4166225;28;20032;-66
2022/01/05 03:41:47;;;;;;;9.70;5.55;;;3.90;99.90;;;3.40;100.00;101142.03;4166153;28;20064;-66
2022/01/05 03:43:48;;;;;;;10.45;4.57;;;3.90;99.90;;;3.18;100.00;101153.00;4152982;28;20101;-66
2022/01/05 03:45:51;;;;;;;6.70;3.40;;;3.90;99.90;;;3.15;100.00;101156.66;4150805;28;20036;-66
2022/01/05 03:47:51;;;;;;;12.75;3.22;;;3.90;99.90;;;3.41;100.00;101149.72;4150894;28;20104;-66
2022/01/05 03:49:52;;;;;;;10.52;4.10;;;3.90;99.90;;;3.34;100.00;101159.72;4150948;28;20042;-66
2022/01/05 03:51:53;;;;;;;9.73;4.03;;;4.00;99.90;;;3.60;99.73;101154.56;4171551;28;20032;-66
2022/01/05 03:53:54;;;;;;;12.07;3.30;;;3.90;99.90;;;2.93;100.00;101161.53;4154761;28;20086;-66
2022/01/05 03:55:55;;;;;;;8.25;3.22;;;3.80;99.90;;;3.09;100.00;101157.03;4168518;28;20144;-66
2022/01/05 03:57:56;;;;;;;9.45;3.60;;;3.70;99.90;;;3.46;100.00;101157.28;4150746;28;20029;-66
2022/01/05 03:59:57;;;;;;;8.60;3.58;;;3.80;99.90;;;3.62;99.02;101165.75;4150953;28;20022;-66
2022/01/05 04:01:58;;;;;;;10.70;3.63;;;3.90;99.90;;;3.62;99.08;101169.19;4150831;28;20026;-66
2022/01/05 04:03:59;;;;;;;8.02;3.42;;;3.90;99.90;;;3.64;99.08;101166.50;4150861;28;20058;-66
2022/01/05 04:05:59;;;;;;;10.23;3.30;;;4.00;99.90;;;3.32;99.27;101161.59;4157337;28;20045;-66
2022/01/05 04:08:00;;;;;;;8.80;4.45;;;3.90;99.90;;;2.96;100.00;101169.16;4167048;28;20039;-66
2022/01/05 04:10:02;;;;;;;8.10;3.05;;;4.00;99.90;;;3.12;100.00;101175.09;4152268;28;20034;-66
2022/01/05 04:12:04;;;;;;;10.57;3.35;;;3.80;99.90;;;3.34;100.00;101170.16;4153819;28;20093;-66
2022/01/05 04:14:05;;;;;;;8.57;3.25;;;3.80;99.90;;;3.62;98.44;101178.78;4169274;28;20057;-66
2022/01/05 04:16:06;;;;;;;10.30;2.90;;;3.80;99.90;;;3.44;97.82;101179.97;4159906;28;20132;-66
2022/01/05 04:18:07;;;;;;;9.68;4.15;;;3.90;99.90;;;3.51;98.47;101187.31;4153947;28;20034;-66
2022/01/05 04:20:11;;;;;;;7.13;3.08;;;3.90;99.90;;;3.61;97.67;101192.78;4158038;28;20037;-66
2022/01/05 04:22:12;;;;;;;10.65;3.15;;;4.10;99.90;;;3.45;97.64;101181.66;4162454;28;20108;-66
2022/01/05 04:24:12;;;;;;;9.32;3.75;;;3.90;99.90;;;3.59;97.22;101190.25;4153932;28;20485;-66
2022/01/05 04:26:13;;;;;;;9.70;4.40;;;3.90;99.90;;;3.56;96.88;101187.00;4152552;28;20429;-66
2022/01/05 04:28:14;;;;;;;6.05;2.72;;;4.00;99.90;;;3.44;97.27;101190.41;4157942;28;20144;-66
2022/01/05 04:30:16;;;;;;;7.63;3.00;;;3.90;99.90;;;3.22;98.34;101186.59;4170334;28;20463;-66
2022/01/05 04:32:16;;;;;;;6.55;3.38;;;3.90;99.90;;;3.14;100.00;101182.78;4170362;28;20516;-66
2022/01/05 04:34:18;;;;;;;8.88;3.25;;;3.80;99.90;;;3.12;100.00;101188.13;4165626;28;20053;-66
2022/01/05 04:36:19;;;;;;;11.82;3.50;;;3.70;99.90;;;3.08;100.00;101183.19;4166191;28;20450;-66
2022/01/05 04:38:20;;;;;;;9.90;3.00;;;3.70;99.90;;;3.01;100.00;101195.78;4153597;28;20029;-66
2022/01/05 04:40:21;;;;;;;6.50;3.33;;;3.70;99.90;;;3.02;100.00;101187.00;4162973;28;20036;-66
2022/01/05 04:42:22;;;;;;;10.57;2.97;;;3.70;99.90;;;3.02;100.00;101184.41;4168810;28;20028;-66
2022/01/05 04:44:23;;;;;;;12.38;2.88;;;3.60;99.90;;;3.23;100.00;101193.47;4168636;28;20033;-66
2022/01/05 04:46:24;;;;;;;10.85;3.67;;;3.60;99.90;;;3.42;98.40;101192.28;4162926;28;20076;-66
2022/01/05 04:48:25;;;;;;;8.38;3.28;;;3.70;99.90;;;3.02;99.52;101194.84;4153439;28;20033;-66
2022/01/05 04:50:26;;;;;;;6.05;3.15;;;3.70;99.90;;;3.11;99.97;101199.47;4153621;28;20727;-66
2022/01/05 04:52:27;;;;;;;8.88;3.80;;;3.70;99.90;;;2.79;100.00;101201.50;4169922;28;20034;-66
2022/01/05 04:54:28;;;;;;;7.00;3.50;;;3.70;99.90;;;2.96;100.00;101200.44;4177670;28;20030;-66
2022/01/05 04:56:29;;;;;;;7.22;2.72;;;3.60;99.90;;;2.97;100.00;101196.91;4168109;28;20109;-66
2022/01/05 04:58:31;;;;;;;11.23;3.30;;;3.60;99.90;;;3.15;100.00;101200.97;4155545;28;20037;-66
2022/01/05 05:00:31;;;;;;;8.10;3.20;;;3.60;99.90;;;2.96;100.00;101194.38;4168539;28;20124;-66
2022/01/05 05:02:32;;;;;;;9.05;3.47;;;3.70;99.90;;;3.02;100.00;101200.03;4163602;28;20038;-66
2022/01/05 05:04:33;;;;;;;9.05;3.40;;;3.60;99.90;;;3.12;98.89;101195.94;4153311;28;20465;-66
2022/01/05 05:06:34;;;;;;;11.90;3.13;;;3.70;99.90;;;3.08;99.46;101193.59;4152137;28;20103;-66
2022/01/05 05:08:35;;;;;;;6.30;3.38;;;3.70;99.90;;;3.12;100.00;101201.16;4165902;28;20025;-66
2022/01/05 05:10:36;;;;;;;8.70;3.60;;;3.70;99.90;;;2.92;100.00;101198.97;4164081;28;20037;-66
2022/01/05 05:12:37;;;;;;;9.60;3.65;;;3.60;99.90;;;3.09;99.33;101196.13;4159834;28;20029;-66
2022/01/05 05:14:38;;;;;;;9.10;3.30;;;3.70;99.90;;;3.15;98.80;101200.97;4164580;28;20091;-66
2022/01/05 05:16:39;;;;;;;5.93;2.70;;;3.70;99.90;;;3.13;98.70;101208.03;4155121;28;20104;-66
2022/01/05 05:18:40;;;;;;;5.10;2.53;;;3.80;99.90;;;3.19;98.34;101210.25;4172562;28;20032;-66
2022/01/05 05:20:41;;;;;;;11.50;3.08;;;4.30;99.90;;;3.47;96.05;101211.06;4170185;28;20041;-66
2022/01/05 05:22:42;;;;;;;8.77;3.95;;;3.80;99.90;;;3.12;97.24;101214.19;4155065;28;20030;-66
2022/01/05 05:24:43;;;;;;;12.25;3.92;;;3.80;99.90;;;3.32;96.44;101218.97;4150669;28;20033;-66
2022/01/05 05:26:44;;;;;;;8.23;4.10;;;3.80;99.90;;;3.56;94.08;101216.53;4156062;28;20104;-66
2022/01/05 05:28:45;;;;;;;8.35;3.10;;;3.80;99.90;;;3.67;93.75;101226.28;4168439;28;20026;-66
2022/01/05 05:30:46;;;;;;;6.15;3.13;;;3.90;99.90;;;3.57;93.60;101222.59;4168450;28;20114;-66
2022/01/05 05:32:47;;;;;;;6.35;3.13;;;3.90;99.90;;;3.45;93.86;101220.78;4150727;28;20030;-66
2022/01/05 05:34:48;;;;;;;11.85;3.53;;;3.80;99.90;;;3.37;95.80;101231.72;4168265;28;20108;-66
2022/01/05 05:36:49;;;;;;;10.48;4.25;;;4.70;99.90;;;3.12;95.06;101236.78;4167810;28;20037;-66
2022/01/05 05:38:50;;;;;;;11.20;3.05;;;3.70;99.90;;;2.95;99.65;101226.59;4168339;28;20033;-66
2022/01/05 05:40:51;;;;;;;6.05;3.17;;;3.50;99.90;;;2.88;99.85;101228.75;4168262;28;20025;-66
2022/01/05 05:42:52;;;;;;;7.95;3.53;;;3.50;99.90;;;2.87;100.00;101227.06;4168472;28;20029;-66
2022/01/05 05:44:53;;;;;;;9.75;3.90;;;3.40;99.90;;;3.06;99.58;101240.63;4168243;28;20025;-66
2022/01/05 05:46:54;;;;;;;5.80;3.05;;;3.30;99.90;;;3.17;97.96;101239.94;4168121;28;20033;-66
2022/01/05 05:48:55;;;;;;;9.38;3.20;;;3.40;99.90;;;3.23;96.74;101237.78;4155398;28;20084;-66
2022/01/05 05:50:56;;;;;;;10.20;3.95;;;3.50;99.90;;;3.42;94.37;101237.47;4166041;28;20169;-66
2022/01/05 05:52:57;;;;;;;10.10;4.00;;;3.50;99.90;;;3.43;93.98;101236.53;4162114;28;20034;-66
2022/01/05 05:54:58;;;;;;;12.52;4.10;;;3.70;99.90;;;3.34;95.53;101248.38;4165991;28;20085;-66
2022/01/05 05:56:59;;;;;;;4.40;2.95;;;3.70;99.90;;;3.20;95.96;101242.34;4157775;28;20092;-66
2022/01/05 05:59:00;;;;;;;11.00;3.10;;;3.60;99.90;;;3.18;94.86;101245.06;4153908;28;20034;-66
2022/01/05 06:01:01;;;;;;;5.85;3.42;;;3.60;99.90;;;3.36;93.20;101243.06;4151709;28;20026;-66
2022/01/05 06:03:02;;;;;;;16.52;3.80;;;3.70;99.90;;;3.49;94.00;101250.94;4159763;28;20029;-66
2022/01/05 06:05:04;;;;;;;7.95;2.97;;;3.80;99.90;;;3.46;93.01;101256.38;4166700;28;20079;-66
2022/01/05 06:07:05;;;;;;;7.93;3.55;;;3.80;99.90;;;3.51;92.49;101259.50;4133896;28;1279993;-66
2022/01/05 06:09:06;;;;;;;10.65;3.55;;;3.90;99.90;;;3.61;92.93;101261.44;4152372;28;20191;-66
2022/01/05 06:11:07;;;;;;;8.25;2.85;;;3.90;99.90;;;3.42;93.06;101260.09;4158232;28;20041;-66
2022/01/05 06:13:08;;;;;;;12.45;3.17;;;3.90;99.90;;;3.51;94.05;101264.72;4156142;28;20076;-66
2022/01/05 06:15:10;;;;;;;8.52;3.35;;;3.90;99.90;;;3.28;94.37;101274.00;4152198;28;20034;-66
2022/01/05 06:17:11;;;;;;;7.57;3.05;;;3.90;99.90;;;3.32;93.73;101276.31;4150685;28;20034;-66
2022/01/05 06:19:12;;;;;;;8.20;3.17;;;3.90;99.90;;;3.34;94.36;101284.06;4161189;28;20428;-66
2022/01/05 06:21:12;;;;;;;9.73;3.35;;;3.80;99.90;;;3.13;96.54;101275.81;4168049;28;20818;-66
2022/01/05 06:23:13;;;;;;;10.32;3.40;;;3.80;99.90;;;2.99;96.26;101278.41;4151504;28;20116;-66
2022/01/05 06:25:14;;;;;;;7.70;3.55;;;3.80;99.90;;;3.20;95.79;101281.47;4157733;28;20025;-66
2022/01/05 06:27:16;;;;;;;7.25;3.15;;;3.70;99.90;;;3.13;95.01;101280.19;4158005;28;20037;-67
2022/01/05 06:29:16;;;;;;;7.72;3.33;;;3.80;99.90;;;3.29;94.64;101289.53;4150942;28;20493;-67
2022/01/05 06:31:18;;;;;;;7.70;3.33;;;3.80;99.90;;;3.18;96.13;101278.97;4178264;28;20112;-67
2022/01/05 06:33:19;;;;;;;6.80;3.13;;;3.90;99.90;;;3.31;94.95;101289.47;4157899;28;20040;-67
2022/01/05 06:35:23;;;;;;;13.40;3.67;;;3.80;99.90;;;3.40;94.63;101291.50;4167469;28;20068;-67
2022/01/05 06:37:24;;;;;;;11.32;3.58;;;3.80;99.90;;;3.21;94.73;101283.97;4167805;28;20029;-67
2022/01/05 06:39:25;;;;;;;9.70;3.85;;;3.90;99.90;;;3.49;94.21;101282.25;4150796;28;20036;-67
2022/01/05 06:41:26;;;;;;;10.57;4.20;;;3.80;99.90;;;3.46;93.95;101279.84;4173273;28;20528;-67
2022/01/05 06:43:28;;;;;;;6.53;3.15;;;3.90;99.90;;;3.47;94.16;101290.16;4180759;28;20045;-67
2022/01/05 06:45:29;;;;;;;8.88;2.80;;;3.80;99.90;;;3.52;93.16;101289.88;4151831;28;20029;-67
2022/01/05 06:47:30;;;;;;;10.25;3.10;;;3.40;99.90;;;3.58;93.06;101292.09;4154256;28;20036;-67
2022/01/05 06:49:32;;;;;;;7.32;4.45;;;3.90;99.90;;;3.60;92.74;101285.84;4151733;28;20489;-67
2022/01/05 06:51:33;;;;;;;11.88;3.08;;;3.90;99.90;;;3.58;92.67;101279.91;4157585;28;20030;-67
2022/01/05 06:53:33;;;;;;;11.98;3.78;;;3.90;99.90;;;3.60;92.43;101285.00;4166728;28;20029;-67
2022/01/05 06:55:34;;;;;;;10.20;3.20;;;3.90;99.90;;;3.50;92.93;101282.13;4171729;28;20040;-66
2022/01/05 06:57:39;;;;;;;7.20;3.72;;;4.00;99.90;;;3.44;92.59;101279.06;4151217;28;20066;-67
2022/01/05 06:59:40;;;;;;;7.25;3.20;;;3.90;99.90;;;3.42;93.55;101275.75;4151497;28;20531;-67
2022/01/05 07:01:41;;;;;;;9.30;2.83;;;3.90;99.90;;;3.40;94.29;101283.69;4151433;28;20025;-67
2022/01/05 07:03:42;;;;;;;7.50;3.33;;;3.90;99.90;;;3.41;93.43;101289.69;4165925;28;20029;-67
2022/01/05 07:05:43;;;;;;;10.07;4.18;;;3.90;99.90;;;3.56;92.83;101286.97;4167129;28;20042;-67
2022/01/05 07:07:44;;;;;;;9.98;4.10;;;3.80;99.90;;;3.62;91.93;101288.34;4167664;28;20524;-67
2022/01/05 07:09:45;;;;;;;15.27;4.22;;;4.10;99.90;;;3.39;93.28;101286.34;4167783;28;20089;-67
2022/01/05 07:11:46;;;;;;;5.47;3.33;;;3.90;99.90;;;3.47;93.12;101295.38;4163145;28;20044;-67
2022/01/05 07:13:47;;;;;;;11.85;3.30;;;3.90;99.90;;;3.25;94.31;101297.66;4151301;28;20081;-67
2022/01/05 07:15:49;;;;;;;7.35;3.17;;;3.80;99.90;;;3.25;94.76;101301.13;4157509;28;20112;-67
2022/01/05 07:17:50;;;;;;;7.30;3.80;;;3.80;99.90;;;3.38;94.46;101305.53;4177587;28;20037;-67
2022/01/05 07:19:51;;;;;;;9.23;3.55;;;3.80;99.90;;;3.28;93.98;101300.09;4154260;28;20050;-67
2022/01/05 07:21:52;;;;;;;7.68;3.42;;;3.90;99.90;;;3.30;94.59;101298.22;4154073;28;20029;-67
2022/01/05 07:23:53;;;;;;;10.52;3.67;;;3.70;99.90;;;3.39;94.09;101307.22;4158954;28;20052;-67
2022/01/05 07:25:54;;;;;;;11.38;4.15;;;3.70;99.90;;;3.44;94.32;101306.00;4167451;28;20040;-67
2022/01/05 07:27:55;;;;;;;10.65;3.20;;;3.70;99.90;;;3.70;91.60;101313.00;4152181;28;20034;-67
2022/01/05 07:29:56;;;;;;;9.00;2.95;;;3.80;99.90;;;3.65;91.29;101333.34;4155529;28;20025;-67
2022/01/05 07:31:57;;;;;;;10.02;3.80;;;3.90;99.90;;;3.30;92.92;101325.13;4158672;28;20117;-67
2022/01/05 07:33:57;;;;;;;9.55;3.60;;;3.80;99.90;;;3.06;94.37;101305.78;4150208;28;20026;-67
2022/01/05 07:35:58;;;;;;;12.68;3.67;;;3.70;99.90;;;3.27;94.04;101312.28;4163325;28;20368;-67
2022/01/05 07:37:59;;;;;;;7.18;3.30;;;3.50;99.90;;;3.00;95.32;101306.16;4166349;28;20048;-67
2022/01/05 07:40:00;;;;;;;9.93;3.47;;;3.70;99.90;;;3.11;95.87;101311.53;4167594;28;20048;-67
2022/01/05 07:42:02;;;;;;;9.32;4.38;;;3.60;99.90;;;3.23;94.72;101312.56;4167544;28;20079;-67
2022/01/05 07:44:05;;;;;;;6.78;4.47;;;3.60;99.90;;;3.28;93.56;101313.13;4167347;28;20018;-66
2022/01/05 07:46:06;;;;;;;16.15;3.90;;;3.60;99.90;;;2.87;95.83;101310.44;4167087;28;20037;-66
2022/01/05 07:48:07;;;;;;;5.57;3.35;;;4.10;99.90;;;2.71;97.77;101314.91;4161333;28;20026;-66
2022/01/05 07:50:14;;;;;;;7.10;3.30;;;3.50;99.90;;;3.01;96.21;101327.84;4151162;28;20490;-67
2022/01/05 07:52:15;;;;;;;4.78;3.00;;;3.50;99.90;;;3.20;95.25;101323.16;4150632;28;20045;-68
2022/01/05 07:54:16;;;;;;;9.25;3.42;;;3.50;99.90;;;3.14;95.23;101334.81;4153340;28;20029;-69
2022/01/05 07:56:17;;;;;;;6.72;3.60;;;3.60;99.90;;;3.19;94.64;101326.72;4160889;28;20506;-69
2022/01/05 07:58:20;;;;;;;6.80;3.05;;;3.50;99.90;;;3.39;93.29;101328.94;4150923;28;20026;-69
2022/01/05 08:00:21;;;;;;;8.02;3.28;;;3.50;99.90;;;3.13;92.66;101345.34;4150892;28;20108;-69
2022/01/05 08:02:21;;;;;;;5.57;3.50;;;3.50;99.90;;;2.72;94.51;101340.84;4153591;28;20033;-69
2022/01/05 08:04:22;;;;;;;5.40;3.45;;;3.60;99.90;;;2.31;97.33;101346.81;4160224;28;20022;-69
2022/01/05 08:06:23;;;;;;;6.43;3.22;;;3.20;99.90;;;2.32;98.38;101349.34;4150149;28;20057;-68
2022/01/05 08:08:24;;;;;;;5.90;3.40;;;3.10;99.90;;;2.41;98.20;101348.81;4149615;28;20115;-69
2022/01/05 08:10:25;;;;;;;8.57;3.72;;;2.90;99.90;;;2.31;98.00;101349.41;4154804;28;20444;-69
2022/01/05 08:12:26;;;;;;;6.72;3.30;;;2.90;99.90;;;2.12;99.99;101347.88;4167093;28;20025;-68
2022/01/05 08:14:27;;;;;;;5.80;3.20;;;2.80;99.90;;;2.24;100.00;101352.38;4155349;28;20144;-69
2022/01/05 08:16:28;;;;;;;5.47;2.88;;;2.70;99.90;;;2.37;100.00;101347.31;4149163;28;20030;-69
2022/01/05 08:18:29;;;;;;;12.48;3.90;;;2.80;99.90;;;2.29;100.00;101364.28;4154536;28;20390;-69
2022/01/05 08:20:30;;;;;;;6.97;3.13;;;2.80;99.90;;;2.19;100.00;101367.41;4158814;28;20029;-68
2022/01/05 08:22:31;;;;;;;6.85;3.38;;;2.80;99.90;;;2.19;100.00;101358.75;4152387;28;20022;-68
2022/01/05 08:24:32;;;;;;;7.13;3.53;;;2.70;99.90;;;2.24;100.00;101354.97;4150657;28;20025;-69
2022/01/05 08:26:33;;;;;;;7.35;3.45;;;2.80;99.90;;;2.19;100.00;101349.19;4152784;28;20029;-69
2022/01/05 08:28:35;;;;;;;4.75;3.40;;;2.80;99.90;;;2.08;100.00;101358.56;4165869;28;20025;-68
2022/01/05 08:30:37;;;;;;;9.45;3.15;;;2.70;99.90;;;2.12;100.00;101368.69;4139059;28;20062;-69
2022/01/05 08:32:38;;;;;;;6.60;3.30;;;3.40;99.90;;;2.35;100.00;101372.59;4163391;28;20507;-68